Карточка аэропорта USHH

Внимание!
Информация на этой странице в стадии наполнения.
Если вы не увидели какой-то информации, или заметили неточность - пожалуйста сообщите нам!
Спасибо!
Команда RU-STAFF
Название аэропортаХанты-Мансийск
Название аэропорта (англ.)Khanty-Mansiysk
Превышение141 ft. (43 m.)
Координаты61°1.7039999999999', 69°5.1599999999999'
Высота перехода800m
Эшелон переходаFL050
Коды ответчика5150-5177
Зона ОрВДТюмень РПИ (USTV)
Данные METARUSHH 010500Z 19005MPS 3900 -SN SCT034 M07/M09 Q1015 R24/450340 TEMPO 2000 SN BKN007
Проноз погоды (TAF)USHH 010143Z 0103/0203 21005G12MPS 6000 FEW005 BKN016 TEMPO 0103/0106 16003G10MPS 2100 -SN SCT002 OVC016 TEMPO 0106/0112 -SHSN FEW003 BKN016CB TEMPO 0112/0203 5000 -SN -FZDZ OVC016 BECMG 0114/0115 22003G10MPS
NOTAMshow/hide NOTAM
AWOS   TABLE

Информация о ВПП

ВПП Длина ВПП (м.) Покрытие Курс ВПП Частота ILS
062800Асфальтобетон58111.9
242800Асфальтобетон238110.1

Диспетчерские позиции

Позывной Наименование органа УВД Частота
USHH_R_APPХантым-Круг120.4
USHH_TWRХантым-Вышка118.1



Спутниковое изображение